Time;durP1;ratioP1;P1;durP2;ratioP2;P2;SDS_P1;SDS_P2;PMS_P1;PMS_P2;Temp;Humidity;BMP_temperature;BMP_pressure;BME280_temperature;BME280_humidity;BME280_pressure;Samples;Min_cycle;Max_cycle;Signal;HPM_P1;HPM_P2
2022/08/08 00:00:42;;;;;;;3.95;1.58;;;21.30;85.20;;;;;;5013739;28;20033;-75
2022/08/08 00:03:36;;;;;;;2.53;1.35;;;21.30;84.90;;;;;;5039025;28;20401;-75
2022/08/08 00:06:10;;;;;;;2.53;1.25;;;21.30;84.70;;;;;;5030055;28;20029;-75
2022/08/08 00:08:50;;;;;;;3.78;1.40;;;21.30;84.70;;;;;;5017318;28;20116;-74
2022/08/08 00:11:26;;;;;;;2.63;1.50;;;21.30;84.70;;;;;;5037494;28;20025;-75
2022/08/08 00:14:29;;;;;;;3.53;1.40;;;21.30;84.80;;;;;;5046674;28;20029;-77
2022/08/08 00:17:17;;;;;;;3.22;1.60;;;21.30;84.90;;;;;;5025275;28;20501;-76
2022/08/08 00:20:01;;;;;;;3.20;1.48;;;21.30;85.00;;;;;;5011252;28;20071;-75
2022/08/08 00:22:34;;;;;;;3.35;1.60;;;21.20;85.10;;;;;;4994412;28;20553;-75
2022/08/08 00:25:10;;;;;;;2.67;1.52;;;21.20;85.10;;;;;;5013810;28;20037;-75
2022/08/08 00:27:38;;;;;;;3.50;1.73;;;21.20;85.10;;;;;;5013741;28;20398;-75
2022/08/08 00:30:06;;;;;;;3.80;1.48;;;21.20;85.20;;;;;;5013406;28;20076;-75
2022/08/08 00:32:39;;;;;;;2.42;1.40;;;21.20;85.20;;;;;;5021846;28;20112;-75
2022/08/08 00:35:26;;;;;;;3.17;1.40;;;21.20;85.20;;;;;;5051109;28;20032;-75
2022/08/08 00:38:32;;;;;;;3.33;1.58;;;21.20;85.60;;;;;;5051311;28;20481;-76
2022/08/08 00:41:39;;;;;;;2.80;1.45;;;21.20;85.70;;;;;;4950970;28;20031;-77
2022/08/08 00:44:30;;;;;;;2.17;1.30;;;21.20;85.60;;;;;;5033160;28;20055;-76
2022/08/08 00:47:24;;;;;;;2.95;1.48;;;21.30;85.50;;;;;;5013587;28;20490;-75
2022/08/08 00:50:26;;;;;;;3.83;1.50;;;21.30;85.40;;;;;;5034315;28;20024;-75
2022/08/08 00:53:19;;;;;;;2.47;1.40;;;21.30;85.30;;;;;;5033641;28;20030;-75
2022/08/08 00:56:11;;;;;;;4.32;1.67;;;21.30;85.00;;;;;;5024372;28;20034;-75
2022/08/08 00:59:17;;;;;;;2.90;1.55;;;21.20;84.90;;;;;;5013642;28;20242;-75
2022/08/08 01:02:14;;;;;;;3.47;1.60;;;21.20;84.80;;;;;;5031063;28;20100;-75
2022/08/08 01:05:08;;;;;;;3.25;1.50;;;21.20;85.00;;;;;;5025800;28;20050;-74
2022/08/08 01:07:52;;;;;;;1.95;1.30;;;21.20;85.10;;;;;;5046503;28;20612;-76
2022/08/08 01:10:55;;;;;;;2.50;1.40;;;21.10;85.10;;;;;;5034127;28;20119;-75
2022/08/08 01:13:41;;;;;;;3.22;1.60;;;21.10;85.20;;;;;;5053660;28;20028;-76
2022/08/08 01:16:44;;;;;;;4.25;2.00;;;21.10;85.20;;;;;;5038065;28;20101;-76
2022/08/08 01:19:48;;;;;;;3.03;1.60;;;21.20;85.50;;;;;;5034401;28;20033;-76
2022/08/08 01:22:51;;;;;;;4.00;1.70;;;21.10;85.30;;;;;;5016497;28;20021;-75
2022/08/08 01:25:54;;;;;;;2.78;1.50;;;21.10;85.70;;;;;;5016744;28;20120;-76
2022/08/08 01:28:33;;;;;;;3.45;1.80;;;21.10;85.80;;;;;;5034217;28;20025;-76
2022/08/08 01:31:32;;;;;;;2.75;1.48;;;21.20;85.80;;;;;;5012658;28;20053;-76
2022/08/08 01:34:24;;;;;;;2.75;1.38;;;21.20;86.20;;;;;;5014429;28;20398;-75
2022/08/08 01:37:27;;;;;;;2.83;1.50;;;21.20;85.50;;;;;;4981209;28;20406;-75
2022/08/08 01:40:24;;;;;;;2.90;1.50;;;21.20;85.40;;;;;;5019269;28;20025;-75
2022/08/08 01:42:56;;;;;;;2.88;1.50;;;21.20;85.40;;;;;;4987230;28;20036;-75
2022/08/08 01:45:59;;;;;;;3.35;1.60;;;21.20;85.50;;;;;;5046439;28;20501;-76
2022/08/08 01:48:57;;;;;;;3.90;1.70;;;21.20;85.40;;;;;;5034293;28;20029;-75
2022/08/08 01:51:35;;;;;;;4.13;1.80;;;21.20;85.70;;;;;;5015863;28;20479;-75
2022/08/08 01:54:12;;;;;;;3.00;1.50;;;21.20;85.90;;;;;;5033362;28;20029;-76
2022/08/08 01:57:10;;;;;;;2.72;1.58;;;21.20;85.80;;;;;;5038096;28;20025;-75
2022/08/08 01:59:36;;;;;;;3.60;1.60;;;21.10;85.50;;;;;;4991252;28;20458;-73
2022/08/08 02:02:21;;;;;;;3.60;1.60;;;21.10;85.60;;;;;;5019963;28;20088;-75
2022/08/08 02:04:55;;;;;;;2.63;1.50;;;21.10;85.80;;;;;;4996366;28;20125;-75
2022/08/08 02:07:30;;;;;;;3.20;1.45;;;21.10;85.60;;;;;;5013624;28;20029;-75
2022/08/08 02:10:42;;;;;;;3.90;1.63;;;21.10;85.70;;;;;;5001650;28;20056;-75
2022/08/08 02:13:19;;;;;;;4.22;1.90;;;21.10;85.60;;;;;;5022922;28;20037;-76
2022/08/08 02:16:11;;;;;;;2.00;1.40;;;21.10;86.10;;;;;;5041134;28;20040;-75
2022/08/08 02:18:55;;;;;;;2.75;1.60;;;21.10;85.90;;;;;;5032462;28;20678;-75
2022/08/08 02:24:26;;;;;;;2.67;1.67;;;21.20;85.80;;;;;;5014570;28;20080;-76
2022/08/08 02:27:03;;;;;;;3.03;1.60;;;21.20;85.60;;;;;;5052936;28;20481;-76
2022/08/08 02:29:39;;;;;;;2.85;1.48;;;21.20;85.60;;;;;;5041319;28;20044;-76
2022/08/08 02:32:34;;;;;;;3.42;1.70;;;21.20;85.60;;;;;;5029113;28;20029;-75
2022/08/08 02:35:36;;;;;;;2.55;1.52;;;21.20;85.60;;;;;;5010301;28;20026;-76
2022/08/08 02:38:31;;;;;;;2.08;1.40;;;21.20;85.80;;;;;;4936523;29;20015;-76
2022/08/08 02:41:35;;;;;;;3.08;1.55;;;21.10;85.70;;;;;;5014561;28;20025;-75
2022/08/08 02:44:31;;;;;;;3.28;1.75;;;21.10;85.90;;;;;;5032776;28;20028;-76
2022/08/08 02:47:15;;;;;;;2.42;1.58;;;21.10;86.00;;;;;;5032603;28;20036;-76
2022/08/08 02:49:58;;;;;;;3.13;1.60;;;21.10;86.10;;;;;;5032490;28;20029;-75
2022/08/08 02:52:48;;;;;;;2.45;1.50;;;21.10;86.10;;;;;;5032707;28;20063;-75
2022/08/08 02:55:17;;;;;;;3.42;1.75;;;21.10;86.00;;;;;;5031870;28;20025;-75
2022/08/08 02:58:30;;;;;;;3.22;1.73;;;21.10;86.00;;;;;;5032590;28;20044;-75
2022/08/08 03:01:29;;;;;;;3.15;1.65;;;21.00;86.10;;;;;;5011283;28;20030;-75
2022/08/08 03:04:13;;;;;;;2.70;1.52;;;21.10;86.10;;;;;;5048450;28;20386;-75
2022/08/08 03:06:50;;;;;;;3.45;1.75;;;21.10;86.10;;;;;;5036404;28;20029;-75
2022/08/08 03:09:59;;;;;;;3.35;1.80;;;21.10;86.00;;;;;;5032576;28;20028;-75
2022/08/08 03:12:33;;;;;;;3.25;1.70;;;21.10;85.90;;;;;;5024522;28;20029;-77
2022/08/08 03:15:45;;;;;;;3.47;1.70;;;21.10;85.70;;;;;;5034435;28;20025;-76
2022/08/08 03:18:32;;;;;;;3.30;1.70;;;21.20;85.70;;;;;;4994991;28;20530;-76
2022/08/08 03:20:57;;;;;;;3.03;1.67;;;21.20;85.60;;;;;;4979182;28;20049;-75
2022/08/08 03:23:23;;;;;;;2.85;1.50;;;21.10;85.70;;;;;;5013672;28;20026;-75
2022/08/08 03:25:50;;;;;;;3.08;1.80;;;21.10;85.80;;;;;;5032047;28;20028;-75
2022/08/08 03:28:36;;;;;;;3.28;1.80;;;21.10;85.90;;;;;;5023992;28;20048;-76
2022/08/08 03:33:17;;;;;;;2.80;1.77;;;21.10;86.00;;;;;;5027737;28;20025;-76
2022/08/08 03:33:47;;;;;;;2.88;1.58;;;21.10;86.00;;;;;;5012322;28;20030;-76
2022/08/08 03:36:14;;;;;;;3.10;1.80;;;21.10;86.10;;;;;;5023926;28;20055;-75
2022/08/08 03:38:39;;;;;;;4.32;1.90;;;21.10;86.10;;;;;;5032130;28;20092;-76
2022/08/08 03:41:05;;;;;;;3.13;1.80;;;21.00;86.20;;;;;;5014015;28;20021;-76
2022/08/08 03:43:30;;;;;;;3.33;1.77;;;21.00;86.30;;;;;;5014139;28;20108;-76
2022/08/08 03:45:56;;;;;;;3.38;1.73;;;21.00;86.30;;;;;;5038250;28;20161;-75
2022/08/08 03:48:21;;;;;;;3.78;2.00;;;21.00;86.30;;;;;;5052058;28;20037;-75
2022/08/08 03:50:48;;;;;;;3.38;2.00;;;21.00;86.30;;;;;;5051400;28;20615;-76
2022/08/08 03:53:16;;;;;;;3.88;2.10;;;21.00;86.30;;;;;;5051724;28;20497;-76
2022/08/08 03:55:45;;;;;;;3.50;1.85;;;21.00;86.30;;;;;;5049860;28;20036;-76
2022/08/08 03:58:25;;;;;;;3.05;1.80;;;21.00;86.20;;;;;;5015897;28;20036;-76
2022/08/08 04:00:53;;;;;;;4.13;1.92;;;21.10;86.10;;;;;;5038975;28;20060;-76
2022/08/08 04:03:19;;;;;;;2.63;1.52;;;21.00;85.90;;;;;;5040715;28;20048;-77
2022/08/08 04:05:46;;;;;;;2.45;1.60;;;21.10;85.90;;;;;;5020419;28;20033;-72
2022/08/08 04:08:19;;;;;;;3.10;1.60;;;21.10;85.80;;;;;;5039086;28;20036;-73
2022/08/08 04:10:47;;;;;;;2.75;1.77;;;21.10;85.70;;;;;;5012513;28;20032;-73
2022/08/08 04:13:13;;;;;;;4.05;2.00;;;21.10;85.80;;;;;;5030918;28;20057;-72
2022/08/08 04:15:39;;;;;;;3.22;1.70;;;21.10;85.90;;;;;;5030745;28;20033;-72
2022/08/08 04:18:05;;;;;;;3.15;1.83;;;21.10;86.00;;;;;;5011415;28;20021;-72
2022/08/08 04:20:31;;;;;;;2.90;1.80;;;21.10;86.10;;;;;;5015191;28;20025;-73
2022/08/08 04:22:56;;;;;;;3.53;1.83;;;21.00;86.50;;;;;;5038515;28;20091;-72
2022/08/08 04:25:22;;;;;;;3.25;1.90;;;21.00;86.20;;;;;;5041587;28;20096;-72
2022/08/08 04:27:48;;;;;;;3.60;2.20;;;21.00;86.20;;;;;;5036920;28;20149;-72
2022/08/08 04:30:13;;;;;;;3.20;1.80;;;21.00;86.20;;;;;;5030859;28;20033;-75
2022/08/08 04:32:39;;;;;;;4.45;1.95;;;21.00;86.30;;;;;;5031533;28;20034;-75
2022/08/08 04:35:05;;;;;;;3.30;1.80;;;21.00;86.30;;;;;;5031588;28;20497;-74
2022/08/08 04:37:30;;;;;;;3.60;2.00;;;21.00;86.40;;;;;;5017884;28;20025;-78
2022/08/08 04:39:56;;;;;;;3.53;1.95;;;21.00;86.40;;;;;;5032122;28;20045;-76
2022/08/08 04:42:24;;;;;;;3.03;1.70;;;21.00;86.30;;;;;;5048196;28;20025;-76
2022/08/08 04:44:51;;;;;;;3.30;1.92;;;21.00;86.40;;;;;;5036384;28;20029;-75
2022/08/08 04:47:17;;;;;;;2.85;1.63;;;21.00;86.20;;;;;;5054700;28;20017;-75
2022/08/08 04:49:42;;;;;;;4.00;2.22;;;21.00;86.10;;;;;;5054549;28;20025;-76
2022/08/08 04:52:10;;;;;;;2.83;1.70;;;21.00;86.00;;;;;;5042940;23;20053;-75
2022/08/08 04:54:55;;;;;;;3.45;1.75;;;21.20;85.90;;;;;;5035890;28;20166;-72
2022/08/08 04:57:21;;;;;;;3.22;1.90;;;21.20;85.80;;;;;;5056368;28;20405;-73
2022/08/08 04:59:46;;;;;;;3.42;1.80;;;21.10;85.70;;;;;;5072876;28;20021;-74
2022/08/08 05:02:12;;;;;;;3.63;1.98;;;21.10;85.80;;;;;;5055847;28;20477;-73
2022/08/08 05:04:37;;;;;;;4.18;2.10;;;21.10;85.90;;;;;;5074357;28;20028;-77
2022/08/08 05:07:03;;;;;;;3.95;2.03;;;21.10;85.90;;;;;;5056531;28;20103;-76
2022/08/08 05:09:29;;;;;;;4.18;2.30;;;21.10;85.90;;;;;;5067914;28;20045;-79
2022/08/08 05:11:54;;;;;;;3.78;1.95;;;21.10;86.00;;;;;;5026514;28;20108;-78
2022/08/08 05:14:20;;;;;;;4.30;2.13;;;21.00;86.10;;;;;;5016141;28;20098;-77
2022/08/08 05:16:45;;;;;;;3.92;2.25;;;21.00;86.10;;;;;;5037685;28;20032;-78
2022/08/08 05:19:11;;;;;;;3.28;1.90;;;21.00;86.10;;;;;;5040532;28;20028;-78
2022/08/08 05:21:43;;;;;;;3.33;1.95;;;21.00;86.10;;;;;;5039881;28;20021;-78
2022/08/08 05:24:10;;;;;;;4.18;2.00;;;21.00;86.10;;;;;;5035185;28;20434;-77
2022/08/08 05:26:37;;;;;;;4.13;2.00;;;21.00;86.10;;;;;;5027018;28;20059;-77
2022/08/08 05:29:07;;;;;;;3.53;2.00;;;21.00;86.10;;;;;;5050219;28;20115;-77
2022/08/08 05:31:33;;;;;;;6.53;2.35;;;21.00;86.10;;;;;;5037796;28;20030;-77
2022/08/08 05:33:59;;;;;;;3.38;1.95;;;21.00;86.10;;;;;;5035817;28;20115;-76
2022/08/08 05:36:25;;;;;;;4.68;2.15;;;21.00;86.00;;;;;;5028297;28;20120;-76
2022/08/08 05:38:52;;;;;;;4.20;2.08;;;21.00;85.90;;;;;;5023455;28;20024;-77
2022/08/08 05:41:22;;;;;;;4.05;2.10;;;21.10;85.80;;;;;;5042000;28;20025;-77
2022/08/08 05:43:48;;;;;;;4.13;2.10;;;21.10;85.70;;;;;;5054063;28;20032;-77
2022/08/08 05:46:15;;;;;;;3.92;2.08;;;21.10;85.60;;;;;;5054306;28;20029;-77
2022/08/08 05:48:41;;;;;;;3.42;2.13;;;21.10;86.00;;;;;;5035692;28;20139;-78
2022/08/08 05:51:07;;;;;;;3.63;2.10;;;21.10;85.40;;;;;;5035552;28;20040;-78
2022/08/08 05:53:33;;;;;;;3.47;2.00;;;21.10;85.40;;;;;;5032961;28;20029;-77
2022/08/08 05:56:00;;;;;;;4.22;1.85;;;21.10;85.40;;;;;;5035460;28;20489;-77
2022/08/08 05:58:32;;;;;;;5.07;2.20;;;21.10;85.60;;;;;;5053332;28;20463;-78
2022/08/08 06:03:33;;;;;;;4.10;1.98;;;21.10;85.70;;;;;;5031816;28;20123;-78
2022/08/08 06:06:08;;;;;;;4.57;2.38;;;21.10;85.70;;;;;;5032466;28;20025;-78
2022/08/08 06:08:41;;;;;;;4.03;2.17;;;21.10;85.80;;;;;;5005416;28;20430;-78
2022/08/08 06:11:07;;;;;;;4.60;2.30;;;21.10;85.70;;;;;;5011019;28;20072;-78
2022/08/08 06:13:32;;;;;;;3.83;2.10;;;21.10;85.60;;;;;;5013567;28;20030;-78
2022/08/08 06:15:58;;;;;;;4.72;2.30;;;21.10;85.50;;;;;;5012950;28;20025;-78
2022/08/08 06:18:25;;;;;;;3.97;1.90;;;21.10;85.30;;;;;;5015371;28;20056;-77
2022/08/08 06:20:54;;;;;;;3.65;2.10;;;21.10;85.20;;;;;;5015032;28;20032;-78
2022/08/08 06:23:20;;;;;;;4.13;2.40;;;21.10;85.10;;;;;;5033167;28;20076;-78
2022/08/08 06:26:08;;;;;;;3.65;2.10;;;21.20;85.20;;;;;;5015000;28;20076;-78
2022/08/08 06:28:42;;;;;;;4.63;2.15;;;21.20;85.20;;;;;;4995568;28;20029;-78
2022/08/08 06:31:11;;;;;;;5.97;2.17;;;21.20;85.10;;;;;;5021466;28;20734;-77
2022/08/08 06:34:03;;;;;;;5.38;2.30;;;21.20;85.00;;;;;;5026298;28;20406;-78
2022/08/08 06:36:40;;;;;;;4.28;2.40;;;21.30;84.60;;;;;;5003370;28;20049;-78
2022/08/08 06:39:10;;;;;;;4.00;2.33;;;21.30;84.50;;;;;;5032509;28;20017;-79
2022/08/08 06:41:55;;;;;;;3.92;2.17;;;21.30;84.50;;;;;;5014941;28;20033;-78
2022/08/08 06:44:23;;;;;;;4.13;2.20;;;21.40;84.40;;;;;;5012327;28;20494;-78
2022/08/08 06:46:49;;;;;;;4.88;2.40;;;21.30;84.30;;;;;;5032430;28;20198;-78
2022/08/08 06:49:15;;;;;;;4.28;2.38;;;21.30;84.30;;;;;;5014324;28;20120;-77
2022/08/08 06:51:40;;;;;;;5.18;2.50;;;21.30;84.40;;;;;;5014128;28;20064;-77
2022/08/08 06:54:08;;;;;;;4.53;2.25;;;21.30;84.40;;;;;;5032603;28;20057;-78
2022/08/08 06:56:35;;;;;;;3.88;2.25;;;21.30;84.30;;;;;;5025117;28;20573;-78
2022/08/08 06:59:00;;;;;;;4.03;2.00;;;21.40;84.40;;;;;;5013650;28;20116;-77
2022/08/08 07:01:28;;;;;;;4.70;2.50;;;21.40;84.30;;;;;;5030368;28;20104;-77
2022/08/08 07:04:05;;;;;;;4.03;2.25;;;21.30;84.20;;;;;;5014520;28;20079;-77
2022/08/08 07:06:32;;;;;;;3.95;2.35;;;21.40;84.30;;;;;;5014064;28;20049;-78
2022/08/08 07:09:19;;;;;;;4.10;2.30;;;21.30;84.20;;;;;;5014416;28;20124;-77
2022/08/08 07:11:49;;;;;;;4.85;2.45;;;21.40;84.30;;;;;;5000169;28;20445;-77
2022/08/08 07:14:25;;;;;;;4.25;2.17;;;21.40;84.10;;;;;;5014375;28;20125;-78
2022/08/08 07:17:03;;;;;;;4.30;2.50;;;21.40;84.80;;;;;;4999308;28;20410;-77
2022/08/08 07:19:35;;;;;;;4.65;2.58;;;21.50;84.10;;;;;;5027095;28;21339;-78
2022/08/08 07:22:04;;;;;;;;;;;21.50;84.00;;;;;;5031957;28;20023;-77
2022/08/08 07:24:49;;;;;;;4.13;2.30;;;21.50;83.70;;;;;;5031214;28;19909;-78
2022/08/08 07:27:23;;;;;;;5.00;2.65;;;21.60;83.60;;;;;;5032369;28;20105;-77
2022/08/08 07:29:50;;;;;;;4.85;2.80;;;21.60;83.30;;;;;;5025365;28;20018;-78
2022/08/08 07:32:18;;;;;;;4.47;2.63;;;21.60;83.00;;;;;;5012050;28;20021;-77
2022/08/08 07:34:44;;;;;;;4.55;2.65;;;21.60;83.10;;;;;;5012727;28;20018;-78
2022/08/08 07:37:11;;;;;;;4.80;2.58;;;21.60;83.10;;;;;;5032049;28;20052;-78
2022/08/08 07:39:40;;;;;;;5.85;2.70;;;21.60;83.00;;;;;;5013143;28;20018;-75
2022/08/08 07:42:09;;;;;;;6.50;2.92;;;21.60;83.00;;;;;;5031673;28;20024;-78
2022/08/08 07:44:35;;;;;;;5.07;2.65;;;21.60;83.00;;;;;;5027600;28;20022;-77
2022/08/08 07:47:01;;;;;;;5.07;2.95;;;21.60;82.80;;;;;;4994570;28;20037;-77
2022/08/08 07:49:26;;;;;;;6.22;3.03;;;21.60;82.90;;;;;;5030237;28;20383;-75
2022/08/08 07:51:52;;;;;;;5.47;3.08;;;21.60;82.60;;;;;;5013880;28;20028;-77
2022/08/08 07:54:33;;;;;;;5.70;3.00;;;21.70;82.60;;;;;;5031836;28;20103;-78
2022/08/08 07:57:20;;;;;;;7.40;3.30;;;21.70;82.80;;;;;;5007679;28;20029;-77
2022/08/08 08:00:00;;;;;;;6.38;3.50;;;21.70;82.70;;;;;;5025874;28;20033;-78
2022/08/08 08:02:39;;;;;;;6.03;3.45;;;21.70;82.60;;;;;;5015345;28;20029;-79
2022/08/08 08:05:11;;;;;;;6.38;3.30;;;21.70;82.80;;;;;;5015645;28;20041;-78
2022/08/08 08:07:39;;;;;;;5.28;3.38;;;21.80;82.80;;;;;;5016467;28;20034;-78
2022/08/08 08:10:08;;;;;;;5.95;3.50;;;21.80;82.60;;;;;;5035733;28;20026;-79
2022/08/08 08:12:38;;;;;;;6.20;3.70;;;21.80;82.40;;;;;;5038484;28;20021;-78
2022/08/08 08:15:05;;;;;;;5.65;3.25;;;21.90;82.30;;;;;;5038769;28;20041;-78
2022/08/08 08:17:31;;;;;;;5.78;3.47;;;21.90;82.10;;;;;;5003997;28;20160;-79
2022/08/08 08:20:01;;;;;;;6.10;3.35;;;21.90;82.00;;;;;;5021423;28;20053;-79
2022/08/08 08:22:27;;;;;;;6.05;3.22;;;21.90;81.90;;;;;;5014709;28;20060;-79
2022/08/08 08:24:52;;;;;;;6.60;3.30;;;22.00;81.90;;;;;;5020222;28;20059;-79
2022/08/08 08:27:18;;;;;;;5.70;3.50;;;21.90;81.90;;;;;;5020502;28;20021;-79
2022/08/08 08:29:44;;;;;;;5.63;3.60;;;21.80;81.90;;;;;;5020402;28;20029;-79
2022/08/08 08:32:10;;;;;;;5.72;3.40;;;22.00;81.90;;;;;;5038174;28;20385;-78
2022/08/08 08:34:36;;;;;;;6.75;3.60;;;21.90;81.80;;;;;;5017634;28;20071;-78
2022/08/08 08:37:02;;;;;;;5.22;3.15;;;22.00;81.80;;;;;;5021216;28;20053;-79
2022/08/08 08:39:28;;;;;;;6.05;3.70;;;22.00;81.80;;;;;;5037782;28;20029;-78
2022/08/08 08:41:54;;;;;;;6.38;3.67;;;22.00;81.90;;;;;;5036227;28;20554;-80
2022/08/08 08:44:21;;;;;;;6.03;3.25;;;22.00;81.90;;;;;;5023615;28;20018;-81
2022/08/08 08:46:47;;;;;;;5.72;3.50;;;22.00;82.00;;;;;;5022561;28;20030;-80
2022/08/08 08:49:13;;;;;;;5.75;3.83;;;22.00;82.00;;;;;;5031538;28;20040;-79
2022/08/08 08:51:42;;;;;;;7.13;3.80;;;22.00;82.10;;;;;;5044374;28;20029;-79
2022/08/08 08:54:10;;;;;;;5.70;3.50;;;22.00;82.20;;;;;;5043528;28;20028;-80
2022/08/08 08:56:36;;;;;;;5.75;3.50;;;22.00;82.10;;;;;;5018839;28;20075;-79
2022/08/08 08:59:03;;;;;;;6.00;3.33;;;22.10;82.00;;;;;;5017098;28;20022;-79
2022/08/08 09:01:33;;;;;;;7.00;4.00;;;22.10;82.00;;;;;;5011463;28;20032;-78
2022/08/08 09:04:05;;;;;;;7.55;3.63;;;22.10;81.40;;;;;;5021810;28;20025;-79
2022/08/08 09:06:37;;;;;;;8.77;3.92;;;22.20;81.10;;;;;;5038655;28;20408;-79
2022/08/08 09:09:10;;;;;;;;;;;22.20;81.00;;;;;;5021683;28;20457;-79
2022/08/08 09:11:37;;;;;;;6.65;4.07;;;22.20;80.70;;;;;;5038066;28;19912;-79
2022/08/08 09:14:03;;;;;;;11.15;4.20;;;22.20;80.70;;;;;;5038717;28;20040;-78
2022/08/08 09:16:29;;;;;;;7.70;3.72;;;22.20;81.20;;;;;;5020950;28;20021;-78
2022/08/08 09:18:56;;;;;;;7.97;4.10;;;22.20;80.80;;;;;;5020695;28;20474;-80
2022/08/08 09:21:22;;;;;;;7.72;4.10;;;22.20;80.70;;;;;;5019535;28;20506;-79
2022/08/08 09:23:48;;;;;;;9.35;4.57;;;22.20;80.90;;;;;;5038219;28;20029;-78
2022/08/08 09:26:41;;;;;;;9.88;4.22;;;22.20;80.90;;;;;;5032735;28;20647;-79
2022/08/08 09:29:07;;;;;;;11.38;4.25;;;22.20;81.00;;;;;;5018869;28;20121;-79
2022/08/08 09:32:06;;;;;;;11.48;4.18;;;22.20;80.70;;;;;;5000624;28;20046;-78
2022/08/08 09:34:34;;;;;;;16.13;4.85;;;22.10;80.80;;;;;;5018900;28;20029;-79
2022/08/08 09:37:02;;;;;;;12.85;5.25;;;22.10;79.90;;;;;;5018368;28;20026;-80
2022/08/08 09:39:34;;;;;;;10.45;4.80;;;22.10;78.80;;;;;;4999986;28;20441;-79
2022/08/08 09:42:02;;;;;;;9.77;4.38;;;22.10;78.30;;;;;;5000737;28;20030;-80
2022/08/08 09:44:48;;;;;;;11.18;4.78;;;22.10;77.20;;;;;;5018020;28;20033;-80
2022/08/08 09:47:14;;;;;;;12.77;4.50;;;22.10;77.10;;;;;;5000993;28;20018;-80
2022/08/08 09:49:41;;;;;;;12.57;4.78;;;22.10;76.30;;;;;;5000391;28;20049;-79
2022/08/08 09:52:07;;;;;;;8.82;4.13;;;22.10;75.60;;;;;;5000955;28;20026;-80
2022/08/08 09:54:42;;;;;;;8.13;4.40;;;22.20;75.40;;;;;;5000514;28;20017;-80
2022/08/08 09:57:10;;;;;;;9.38;3.75;;;22.20;75.30;;;;;;5001339;28;20025;-79
2022/08/08 09:59:39;;;;;;;8.23;4.10;;;22.20;73.60;;;;;;5000863;28;20022;-79
2022/08/08 10:02:05;;;;;;;9.75;4.15;;;22.20;73.40;;;;;;5018188;28;20034;-80
2022/08/08 10:04:33;;;;;;;9.52;4.20;;;22.10;73.00;;;;;;5018296;28;20049;-80
2022/08/08 10:07:01;;;;;;;10.55;3.83;;;22.10;72.90;;;;;;5018453;28;20076;-80
2022/08/08 10:09:32;;;;;;;10.90;4.03;;;22.10;73.50;;;;;;5018589;28;20055;-77
2022/08/08 10:12:00;;;;;;;8.48;4.18;;;22.10;73.30;;;;;;5000487;28;20083;-79
2022/08/08 10:14:36;;;;;;;8.55;3.90;;;22.10;73.60;;;;;;5018088;28;20030;-78
2022/08/08 10:17:03;;;;;;;10.55;4.10;;;22.10;73.90;;;;;;5017821;28;20032;-79
2022/08/08 10:19:37;;;;;;;8.02;4.18;;;22.10;73.90;;;;;;5008377;28;20036;-80
2022/08/08 10:22:04;;;;;;;9.55;4.07;;;22.10;74.00;;;;;;5015558;28;20025;-80
2022/08/08 10:24:32;;;;;;;7.35;4.00;;;22.10;74.10;;;;;;5017388;28;20018;-79
2022/08/08 10:27:05;;;;;;;8.68;4.30;;;22.10;74.00;;;;;;5017622;28;20025;-78
2022/08/08 10:29:38;;;;;;;9.27;4.10;;;22.10;73.80;;;;;;5017107;28;20113;-79
2022/08/08 10:34:57;;;;;;;7.15;3.50;;;22.10;72.80;;;;;;5018264;28;20056;-78
2022/08/08 10:37:29;;;;;;;7.63;3.78;;;22.10;73.10;;;;;;5018266;28;20018;-79
2022/08/08 10:39:56;;;;;;;8.90;3.90;;;22.10;72.70;;;;;;5018687;28;20026;-79
2022/08/08 10:42:30;;;;;;;8.25;4.00;;;22.20;72.50;;;;;;5017082;28;20029;-79
2022/08/08 10:45:05;;;;;;;6.93;3.50;;;22.20;72.40;;;;;;4999324;28;20108;-79
2022/08/08 10:47:31;;;;;;;6.60;3.70;;;22.20;72.10;;;;;;5016765;28;20117;-79
2022/08/08 10:50:01;;;;;;;6.28;3.28;;;22.20;72.00;;;;;;4999105;28;20060;-80
2022/08/08 10:52:29;;;;;;;7.25;3.53;;;22.20;71.00;;;;;;4999994;28;20046;-78
2022/08/08 10:54:56;;;;;;;6.90;3.75;;;22.20;70.90;;;;;;4999612;28;20541;-79
2022/08/08 10:57:22;;;;;;;6.30;3.33;;;22.20;70.80;;;;;;5015638;28;20471;-79
2022/08/08 10:59:57;;;;;;;7.80;3.55;;;22.20;70.90;;;;;;5016001;28;20049;-79
2022/08/08 11:02:29;;;;;;;5.90;3.40;;;22.20;71.10;;;;;;5015092;28;20040;-79
2022/08/08 11:04:59;;;;;;;7.72;3.45;;;22.10;71.00;;;;;;5016558;28;20075;-80
2022/08/08 11:07:34;;;;;;;6.05;3.20;;;22.10;71.30;;;;;;4998661;28;20053;-80
2022/08/08 11:10:07;;;;;;;8.82;3.70;;;22.10;71.20;;;;;;5014740;28;20022;-79
2022/08/08 11:12:42;;;;;;;6.65;3.22;;;22.10;71.50;;;;;;5016612;28;20458;-79
2022/08/08 11:15:15;;;;;;;5.90;3.60;;;22.10;71.60;;;;;;5015513;28;20022;-79
2022/08/08 11:17:42;;;;;;;5.88;3.17;;;22.10;71.70;;;;;;5016542;28;20017;-79
2022/08/08 11:20:10;;;;;;;7.15;3.30;;;22.10;71.90;;;;;;5014877;28;20426;-79
2022/08/08 11:22:36;;;;;;;5.93;3.13;;;22.10;72.20;;;;;;5014968;28;20022;-78
2022/08/08 11:25:05;;;;;;;7.25;3.40;;;22.10;72.00;;;;;;5012879;28;20029;-78
2022/08/08 11:27:33;;;;;;;5.63;3.00;;;22.10;71.70;;;;;;5010110;28;20501;-77
2022/08/08 11:30:02;;;;;;;6.15;3.28;;;22.10;71.70;;;;;;5014407;28;20437;-78
2022/08/08 11:32:32;;;;;;;5.60;3.30;;;22.10;71.90;;;;;;5012634;28;20410;-79
2022/08/08 11:35:02;;;;;;;6.38;3.25;;;22.20;71.70;;;;;;4995098;28;20026;-79
2022/08/08 11:37:28;;;;;;;5.85;3.28;;;22.20;71.50;;;;;;4997944;28;20029;-78
2022/08/08 11:39:56;;;;;;;5.85;3.20;;;22.20;71.60;;;;;;4994794;28;20028;-78
2022/08/08 11:42:24;;;;;;;6.13;3.40;;;22.20;70.40;;;;;;5012095;28;20878;-78
2022/08/08 11:44:51;;;;;;;6.55;3.13;;;22.10;70.50;;;;;;5031883;28;20444;-78
2022/08/08 11:47:17;;;;;;;13.77;3.80;;;22.20;70.80;;;;;;5014845;28;20021;-78
2022/08/08 11:49:44;;;;;;;6.72;3.78;;;22.10;70.90;;;;;;5031922;28;20029;-79
2022/08/08 11:52:10;;;;;;;11.55;4.00;;;22.10;71.20;;;;;;5014345;28;20057;-79
2022/08/08 11:54:42;;;;;;;13.00;3.70;;;22.10;71.20;;;;;;5031970;28;20029;-79
2022/08/08 11:57:12;;;;;;;11.73;3.55;;;22.00;71.30;;;;;;5014417;28;20078;-78
2022/08/08 11:59:47;;;;;;;8.65;3.35;;;22.00;71.40;;;;;;5031909;28;20021;-78
2022/08/08 12:02:13;;;;;;;14.20;4.15;;;22.00;71.80;;;;;;5032108;28;20049;-79
2022/08/08 12:04:38;;;;;;;11.68;4.32;;;22.00;71.60;;;;;;5014575;28;20101;-78
2022/08/08 12:07:05;;;;;;;8.95;3.30;;;22.00;72.00;;;;;;5014599;28;20447;-78
2022/08/08 12:09:31;;;;;;;9.43;3.45;;;22.00;71.90;;;;;;5012936;28;20141;-78
2022/08/08 12:11:57;;;;;;;10.82;3.83;;;22.00;71.90;;;;;;5011110;28;20109;-77
2022/08/08 12:14:23;;;;;;;8.82;3.60;;;22.00;72.00;;;;;;5013369;28;20032;-78
2022/08/08 12:16:53;;;;;;;21.63;5.30;;;22.00;72.90;;;;;;5004035;28;20496;-78
2022/08/08 12:19:23;;;;;;;28.98;6.00;;;22.00;73.70;;;;;;5000203;28;20426;-79
2022/08/08 12:21:49;;;;;;;25.75;6.10;;;22.00;72.70;;;;;;5013159;28;20494;-78
2022/08/08 12:24:19;;;;;;;24.05;5.20;;;22.10;73.10;;;;;;5014023;28;20036;-77
2022/08/08 12:26:51;;;;;;;31.13;6.28;;;22.10;72.90;;;;;;5013774;28;20470;-78
2022/08/08 12:29:31;;;;;;;25.23;5.40;;;22.10;73.10;;;;;;5031200;28;20041;-78
2022/08/08 12:32:03;;;;;;;22.50;4.75;;;22.10;73.40;;;;;;5031273;28;20030;-77
2022/08/08 12:34:38;;;;;;;21.33;4.88;;;22.10;73.50;;;;;;5013922;28;20029;-78
2022/08/08 12:37:06;;;;;;;20.55;4.93;;;22.10;74.10;;;;;;5013795;28;20037;-78
2022/08/08 12:39:31;;;;;;;26.33;5.57;;;22.10;74.60;;;;;;5031027;28;20052;-77
2022/08/08 12:41:59;;;;;;;17.67;4.63;;;22.20;75.50;;;;;;5013498;28;20482;-78
2022/08/08 12:44:29;;;;;;;15.13;4.80;;;22.20;77.50;;;;;;5031373;28;20025;-78
2022/08/08 12:46:56;;;;;;;21.52;4.72;;;22.30;77.90;;;;;;5020219;28;20390;-78
2022/08/08 12:49:29;;;;;;;15.75;4.55;;;22.40;79.70;;;;;;5049501;28;20108;-78
2022/08/08 12:51:56;;;;;;;16.88;4.15;;;22.50;79.20;;;;;;5030196;28;20029;-79
2022/08/08 12:54:31;;;;;;;17.15;4.22;;;22.60;80.30;;;;;;5013504;28;20026;-78
2022/08/08 12:56:58;;;;;;;16.88;4.75;;;22.70;79.80;;;;;;5033663;28;20022;-78
2022/08/08 12:59:26;;;;;;;11.95;4.15;;;22.80;80.10;;;;;;5034958;28;20108;-78
2022/08/08 13:02:00;;;;;;;19.25;4.35;;;22.90;81.00;;;;;;5016564;28;20048;-78
2022/08/08 13:04:28;;;;;;;15.07;3.95;;;22.90;81.40;;;;;;5016918;28;20060;-78
2022/08/08 13:06:57;;;;;;;15.38;4.03;;;22.90;81.10;;;;;;5034991;28;20029;-77
2022/08/08 13:09:53;;;;;;;14.73;4.03;;;23.00;81.70;;;;;;5017250;28;20601;-77
2022/08/08 13:12:23;;;;;;;13.02;3.80;;;23.10;81.70;;;;;;5017083;28;20087;-77
2022/08/08 13:14:53;;;;;;;12.38;4.05;;;23.10;82.20;;;;;;5035029;28;20033;-77
2022/08/08 13:17:21;;;;;;;14.20;4.25;;;23.20;82.80;;;;;;5017092;28;20018;-78
2022/08/08 13:19:47;;;;;;;13.13;4.22;;;23.20;83.00;;;;;;5016864;28;20116;-78
2022/08/08 13:22:16;;;;;;;13.68;4.00;;;23.10;83.20;;;;;;5034788;28;20477;-77
2022/08/08 13:24:42;;;;;;;13.63;3.92;;;23.20;83.40;;;;;;5016997;28;20121;-77
2022/08/08 13:27:10;;;;;;;12.35;4.07;;;23.20;83.50;;;;;;5017164;28;20457;-77